createdAt,value
2018-04-11T00:06:52.119Z,997.82
2018-04-11T00:16:55.025Z,997.8
2018-04-11T00:26:54.419Z,997.84
2018-04-11T00:36:52.100Z,997.98
2018-04-11T00:46:52.169Z,997.98
2018-04-11T00:56:52.158Z,998.1
2018-04-11T01:06:52.191Z,998.18
2018-04-11T01:16:52.156Z,998.18
2018-04-11T01:26:52.116Z,998.16
2018-04-11T01:36:52.193Z,998.17
2018-04-11T01:46:52.136Z,998.14
2018-04-11T01:56:52.093Z,998.25
2018-04-11T02:06:52.148Z,998.18
2018-04-11T02:16:52.150Z,998.13
2018-04-11T02:26:52.189Z,998.22
2018-04-11T02:36:52.158Z,998.18
2018-04-11T02:46:52.106Z,998.31
2018-04-11T02:56:52.180Z,998.42
2018-04-11T03:06:52.121Z,998.38
2018-04-11T03:16:52.185Z,998.42
2018-04-11T03:26:52.138Z,998.36
2018-04-11T03:36:52.103Z,998.57
2018-04-11T03:46:52.187Z,998.63
2018-04-11T03:56:52.240Z,998.73
2018-04-11T04:06:52.190Z,998.82
2018-04-11T04:16:52.293Z,998.91
2018-04-11T04:26:52.232Z,998.95
2018-04-11T04:36:52.183Z,998.9
2018-04-11T04:46:52.241Z,999.07
2018-04-11T04:56:52.215Z,999.12
2018-04-11T05:06:52.283Z,999.14
2018-04-11T05:16:52.248Z,999.26
2018-04-11T05:26:52.283Z,999.31
2018-04-11T05:36:52.261Z,999.58
2018-04-11T05:46:52.300Z,999.79
2018-04-11T05:56:52.283Z,999.64
2018-04-11T06:06:52.335Z,999.77
2018-04-11T06:16:52.304Z,999.9
2018-04-11T06:26:52.285Z,999.95
2018-04-11T06:36:52.329Z,999.88
2018-04-11T06:46:52.299Z,1000.02
2018-04-11T06:56:52.335Z,1000.05
2018-04-11T07:06:52.425Z,1000.03
2018-04-11T07:16:52.372Z,1000.07
2018-04-11T07:26:52.354Z,1000.04
2018-04-11T07:36:52.408Z,1000.15
2018-04-11T07:46:52.373Z,1000.39
2018-04-11T07:56:52.423Z,1000.36
2018-04-11T08:06:52.370Z,1000.39
2018-04-11T08:16:52.570Z,1000.41
2018-04-11T08:26:52.417Z,1000.44
2018-04-11T08:36:52.384Z,1000.39
2018-04-11T08:46:52.442Z,1000.44
2018-04-11T08:56:52.376Z,1000.4
2018-04-11T09:06:52.359Z,1000.43
2018-04-11T09:16:52.358Z,1000.29
2018-04-11T09:26:52.367Z,1000.22
2018-04-11T09:36:52.400Z,1000.22
2018-04-11T09:46:52.366Z,1000.08
2018-04-11T09:56:52.367Z,1000.14
2018-04-11T10:06:52.384Z,1000.11
2018-04-11T10:16:52.353Z,1000.03
2018-04-11T10:26:52.358Z,1000.15
2018-04-11T10:36:52.378Z,999.92
2018-04-11T10:46:52.391Z,999.82
2018-04-11T10:56:52.391Z,999.93
2018-04-11T11:06:52.387Z,999.9
2018-04-11T11:16:52.410Z,999.74
2018-04-11T11:26:52.359Z,999.65
2018-04-11T11:36:52.359Z,999.59
2018-04-11T11:46:52.433Z,999.77
2018-04-11T11:56:52.452Z,999.63
2018-04-11T12:06:52.382Z,999.59
2018-04-11T12:16:52.384Z,999.64
2018-04-11T12:26:52.410Z,999.59
2018-04-11T12:36:52.382Z,999.68
2018-04-11T12:46:52.384Z,999.67
2018-04-11T12:56:52.386Z,999.59
2018-04-11T13:06:52.369Z,999.47
2018-04-11T13:16:52.381Z,999.21
2018-04-11T13:26:52.466Z,999.04
2018-04-11T13:36:52.382Z,998.99
2018-04-11T13:46:52.385Z,999.08
2018-04-11T13:56:52.391Z,998.96
2018-04-11T14:06:52.376Z,999.06
2018-04-11T14:16:52.395Z,998.97
2018-04-11T14:26:52.417Z,998.93
2018-04-11T14:36:52.385Z,998.86
2018-04-11T14:46:52.440Z,999.03
2018-04-11T14:56:52.411Z,999.05
2018-04-11T15:06:52.493Z,999.14
2018-04-11T15:16:52.429Z,999.12
2018-04-11T15:26:54.717Z,999.12
2018-04-11T15:36:52.607Z,999.08
2018-04-11T15:46:52.450Z,999.16
2018-04-11T15:56:52.551Z,999.1
2018-04-11T16:06:52.461Z,999.09
2018-04-11T16:16:52.491Z,999.12
2018-04-11T16:26:52.473Z,999.13
2018-04-11T16:36:52.425Z,999.18
2018-04-11T16:46:52.554Z,999.2
2018-04-11T16:56:52.437Z,999.17
2018-04-11T17:06:52.415Z,999.15
2018-04-11T17:16:52.492Z,999.23
2018-04-11T17:26:52.449Z,999.22
2018-04-11T17:36:52.497Z,999.28
2018-04-11T17:46:52.498Z,999.18
2018-04-11T17:56:52.459Z,999.24
2018-04-11T18:06:52.400Z,999.35
2018-04-11T18:16:52.492Z,999.28
2018-04-11T18:26:52.547Z,999.3
2018-04-11T18:36:52.489Z,999.42
2018-04-11T18:46:52.456Z,999.34
2018-04-11T18:56:52.562Z,999.42
2018-04-11T19:06:52.970Z,999.41
2018-04-11T19:16:52.435Z,999.31
2018-04-11T19:26:52.485Z,999.36
2018-04-11T19:36:52.458Z,999.4
2018-04-11T19:46:52.522Z,999.4
2018-04-11T19:56:52.532Z,999.5
2018-04-11T20:06:52.470Z,999.45
2018-04-11T20:16:52.421Z,999.48
2018-04-11T20:26:52.518Z,999.49
2018-04-11T20:36:52.469Z,999.52
2018-04-11T20:46:52.469Z,999.5
2018-04-11T20:56:52.505Z,999.38
2018-04-11T21:06:52.469Z,999.24
2018-04-11T21:56:52.398Z,998.91
2018-04-11T22:16:52.673Z,998.91
2018-04-11T22:26:52.505Z,998.83
2018-04-11T22:36:52.480Z,998.74
2018-04-11T22:46:52.402Z,998.69
2018-04-11T22:56:52.469Z,998.71
2018-04-11T23:06:52.442Z,998.64
2018-04-11T23:16:52.414Z,998.61
2018-04-11T23:26:52.508Z,998.61
2018-04-11T23:36:52.420Z,998.59
2018-04-11T23:46:52.480Z,998.49
2018-04-11T23:56:52.582Z,998.3
